METAR Data
IDs: Format: Raw Decoded Include TAF

Data at: 1501 UTC 12 Dec 2018

PAIW 121456Z AUTO 05015KT 3SM -SN BR OVC017 M09/M11 A2918 RMK AO2 PK WND 02028/1444 SLP884 P0000 60000 T10891106 53011 FZRANO
PAIW 121408Z AUTO 02021KT 4SM -SN BR OVC017 M09/M11 A2917 RMK AO2 P0000 FZRANO
PAIW 121356Z AUTO 02023KT 2 1/2SM -SN BR OVC017 M09/M11 A2917 RMK AO2 PK WND 04027/1310 SLP879 P0000 T10891106 FZRANO
PAIW 121331Z AUTO 03020KT 2SM -SN BR OVC017 M09/M11 A2917 RMK AO2 PK WND 04027/1310 P0000 FZRANO
PAIW 121256Z AUTO 04021KT 1 1/2SM -SN BR OVC015 M09/M11 A2916 RMK AO2 PK WND 02027/1237 SLP875 P0000 T10891106 FZRANO
PAIW 121243Z AUTO 03021KT 2 1/2SM -SN BR OVC015 M09/M11 A2916 RMK AO2 PK WND 02027/1237 P0000 FZRANO
PAIW 121235Z AUTO 03023G27KT 1 3/4SM -SN BR OVC015 M09/M10 A2915 RMK AO2 PK WND 03027/1227 P0000 FZRANO
PAIW 121227Z AUTO 03024G27KT 1SM -SN BR OVC015 M09/M10 A2915 RMK AO2 PK WND 03027/1227 P0000 FZRANO
PAIW 121213Z AUTO 03021KT 1 1/2SM -SN BR OVC015 M09/M10 A2915 RMK AO2 PK WND 02026/1201 P0000 FZRANO
PAIW 121156Z AUTO 03019KT 2 1/2SM -SN BR OVC015 M09/M11 A2915 RMK AO2 PK WND 03028/1124 VIS 2V4 SLP873 P0000 60000 T10891106 11089 21094 51008 FZRANO
PAIW 121137Z AUTO 03021G26KT 3SM -SN BR OVC017 M09/M11 A2915 RMK AO2 PK WND 03028/1124 P0000 FZRANO
PAIW 121123Z AUTO 03022KT 1 1/2SM -SN BR OVC017 M09/M11 A2915 RMK AO2 PK WND 04027/1119 P0000 FZRANO
PAIW 121104Z AUTO 04021KT 2SM -SN BR OVC015 M09/M11 A2914 RMK AO2 P0000 FZRANO
PAIW 121056Z AUTO 03021G29KT 1 3/4SM -SN BR OVC015 M09/M11 A2914 RMK AO2 PK WND 02029/1050 SLP870 P0000 T10891106 FZRANO
PAIW 121037Z AUTO 04022KT 1 3/4SM -SN BR OVC015 M09/M11 A2914 RMK AO2 P0000 FZRANO
PAIW 120956Z AUTO 03020KT 4SM -SN BR OVC015 M09/M11 A2914 RMK AO2 PK WND 01028/0911 SLP868 P0000 T10891106 FZRANO
PAIW 120927Z AUTO 02022KT 4SM -SN BR OVC015 M09/M11 A2913 RMK AO2 PK WND 01028/0911 P0000 FZRANO
PAIW 120918Z AUTO 02022KT 2 1/2SM -SN BR OVC015 M09/M11 A2913 RMK AO2 PK WND 01028/0911 P0000 FZRANO
PAIW 120907Z AUTO 02023KT 4SM -SN BR OVC015 M09/M11 A2912 RMK AO2 PK WND 02026/0907 P0000 FZRANO
PAIW 120856Z AUTO 03021KT 2SM -SN BR OVC015 M09/M11 A2913 RMK AO2 SLP864 P0000 60000 T10941111 410781094 53006 FZRANO
PAIW 120842Z AUTO 04021KT 2SM -SN BR OVC015 M09/M11 A2912 RMK AO2 P0000 FZRANO
PAIW 120835Z AUTO 04021G25KT 3SM -SN BR OVC015 M09/M11 A2912 RMK AO2 P0000 FZRANO
PAIW 120821Z AUTO 03017KT 2 1/2SM -SN BR OVC015 M09/M11 A2912 RMK AO2 P0000 FZRANO
PAIW 120813Z AUTO 03020KT 3SM -SN BR OVC015 M09/M11 A2912 RMK AO2 P0000 FZRANO
PAIW 120756Z AUTO 03022KT 2 1/2SM -SN BR OVC013 M09/M11 A2912 RMK AO2 PK WND 03026/0750 SLP861 P0000 T10941106 FZRANO
PAIW 120747Z AUTO 02022KT 3SM -SN BR OVC013 M09/M11 A2911 RMK AO2 P0000 FZRANO
PAIW 120740Z AUTO 02021KT 2 1/2SM -SN BR OVC013 M09/M11 A2911 RMK AO2 VIS 1 1/2V4 P0000 FZRANO
PAIW 120720Z AUTO 03019KT 1 3/4SM -SN BR OVC013 M09/M11 A2911 RMK AO2 P0000 FZRANO
PAIW 120656Z AUTO 03020KT 2 1/2SM -SN BR OVC013 M09/M11 A2911 RMK AO2 PK WND 02027/0608 VIS 1 3/4V4 SLP860 P0000 T10941106 FZRANO
PAIW 120653Z AUTO 03021G25KT 2 1/2SM -SN BR OVC013 M09/M11 A2911 RMK AO2 PK WND 02027/0608 P0000 FZRANO
PAIW 120639Z AUTO 04020G26KT 2SM -SN BR OVC015 M09/M11 A2911 RMK AO2 PK WND 02027/0608 P0000 FZRANO
PAIW 120629Z AUTO 03020KT 1 3/4SM -SN BR OVC015 M09/M11 A2911 RMK AO2 PK WND 02027/0608 P0000 FZRANO
PAIW 120556Z AUTO 03021KT 2SM -SN BR OVC015 M09/M11 A2911 RMK AO2 PK WND 02027/0458 SLP858 P0000 60000 T10941106 11083 21094 53007 FZRANO
PAIW 120534Z AUTO 03021KT 2SM -SN BR OVC015 M09/M11 A2911 RMK AO2 PK WND 02027/0458 P0000 FZRANO
PAIW 120520Z AUTO 04022KT 1 1/2SM -SN BR OVC017 M09/M11 A2910 RMK AO2 PK WND 02027/0458 P0000 FZRANO
PAIW 120456Z AUTO 03022KT 2 1/2SM -SN BR OVC017 M09/M11 A2910 RMK AO2 SLP854 P0000 T10891106 FZRANO
PAIW 120356Z AUTO 02022KT 2 1/2SM -SN BR OVC021 M09/M10 A2909 RMK AO2 PK WND 02028/0337 SLP852 P0000 T10891100 FZRANO
PAIW 120342Z AUTO 02023KT 1 3/4SM -SN BR OVC023 M09/M10 A2909 RMK AO2 PK WND 02028/0337 P0000 FZRANO
PAIW 120321Z AUTO 02022KT 2SM -SN BR FEW012 BKN019 OVC025 M09/M10 A2909 RMK AO2 P0000 FZRANO
PAIW 120256Z AUTO 02022KT 1 1/2SM -SN BR OVC015 M09/M10 A2909 RMK AO2 PK WND 01026/0210 SLP851 P0000 60000 T10891100 50000 FZRANO
PAIW 120253Z AUTO 02019KT 1 1/2SM -SN BR OVC015 M09/M10 A2909 RMK AO2 PK WND 01026/0210 P0000 FZRANO
PAIW 120234Z AUTO 02021KT 1 1/4SM -SN BR OVC011 M09/M10 A2909 RMK AO2 PK WND 01026/0210 P0000 FZRANO
PAIW 120223Z AUTO 02021KT 1SM -SN BR OVC011 M09/M10 A2909 RMK AO2 PK WND 01026/0210 P0000 FZRANO
PAIW 120205Z AUTO 02021KT 1 1/4SM -SN BR OVC013 M08/M09 A2908 RMK AO2 P0000 FZRANO
PAIW 120156Z AUTO 02023KT 3/4SM -SN BR OVC013 M08/M09 A2908 RMK AO2 PK WND 02026/0154 SLP850 P0000 T10831094 FZRANO
PAIW 120147Z AUTO 01021KT 3/4SM -SN BR OVC013 M08/M09 A2909 RMK AO2 P0000 FZRANO
PAIW 120115Z AUTO 02022KT 3/4SM -SN BR OVC015 M08/M09 A2908 RMK AO2 P0000 FZRANO
PAIW 120103Z AUTO 03018KT 1 1/2SM -SN BR BKN015 OVC023 M08/M09 A2909 RMK AO2 P0000 FZRANO
PAIW 120056Z AUTO 02019KT 2SM -SN BR BKN018 OVC023 M08/M09 A2909 RMK AO2 SLP851 P0000 T10831094 FZRANO
PAIW 120031Z AUTO 02019KT 1 1/2SM -SN BR BKN016 OVC021 M08/M09 A2909 RMK AO2 P0000 FZRANO
PAIW 120016Z AUTO 03016KT 1 3/4SM -SN BR BKN014 OVC022 M08/M09 A2908 RMK AO2 P0000 FZRANO
PAIW 120006Z AUTO 03015KT 1 3/4SM -SN BR SCT016 OVC022 M08/M09 A2908 RMK AO2 VIS 3/4V3 P0000 FZRANO
PAIW 112356Z AUTO 04016KT 1SM -SN BR BKN016 OVC022 M08/M09 A2908 RMK AO2 PK WND 02026/2326 SLP849 P0000 60000 T10831094 11078 21089 53007 FZRANO
PAIW 112354Z AUTO 04017KT 1SM -SN BR BKN016 OVC022 M08/M09 A2908 RMK AO2 PK WND 02026/2326 P0000 FZRANO
PAIW 112350Z AUTO 04019KT 3/4SM -SN BR BKN014 OVC020 M08/M09 A2908 RMK AO2 PK WND 02026/2326 P0000 FZRANO
PAIW 112337Z AUTO 02020KT 1 1/4SM -SN BR FEW009 OVC014 M08/M09 A2907 RMK AO2 PK WND 02026/2326 P0000 FZRANO
PAIW 112330Z AUTO 02021G26KT 1SM -SN BR OVC014 M08/M09 A2907 RMK AO2 PK WND 02026/2326 P0000 FZRANO
PAIW 112305Z AUTO 04018KT 1/2SM SN FZFG BKN012 OVC016 M08/M09 A2907 RMK AO2 P0000 FZRANO
PAIW 112256Z AUTO 03018KT 3/4SM -SN BR OVC016 M08/M09 A2907 RMK AO2 SLP846 P0000 T10831094 FZRANO
PAIW 112249Z AUTO 04019KT 3/4SM -SN BR OVC018 M08/M09 A2907 RMK AO2 P0000 FZRANO
PAIW 112226Z AUTO 04016KT 1/2SM SN FZFG OVC016 M08/M09 A2907 RMK AO2 P0000 FZRANO
PAIW 112218Z AUTO 03016KT 3/4SM -SN BR OVC016 M08/M09 A2907 RMK AO2 P0000 FZRANO
PAIW 112156Z AUTO 03020KT 1SM -SN BR OVC016 M08/M09 A2906 RMK AO2 PK WND 02026/2108 SLP843 P0000 T10831094 FZRANO
PAIW 112135Z AUTO 02021KT 1SM -SN BR OVC016 M08/M09 A2906 RMK AO2 PK WND 02026/2108 P0000 FZRANO
PAIW 112126Z AUTO 02018KT 1 1/4SM -SN BR OVC016 M08/M09 A2906 RMK AO2 PK WND 02026/2108 P0000 FZRANO
PAIW 112116Z AUTO 02018KT 2SM -SN BR OVC018 M08/M09 A2906 RMK AO2 PK WND 02026/2108 P0000 FZRANO
PAIW 112056Z AUTO 02019KT 1SM -SN BR BKN016 BKN023 OVC030 M08/M09 A2906 RMK AO2 SLP842 P0000 60000 T10831094 52004 FZRANO
PAIW 112053Z AUTO 02020KT 1SM -SN BR BKN018 BKN023 OVC030 M08/M09 A2906 RMK AO2 P0000 FZRANO
PAIW 112041Z AUTO 01022KT 1 3/4SM -SN BR FEW012 OVC021 M08/M09 A2906 RMK AO2 P0000 FZRANO
PAIW 112018Z AUTO 02021KT 3SM -SN BR FEW012 BKN017 OVC026 M08/M09 A2905 RMK AO2 P0000 FZRANO
PAIW 112010Z AUTO 02020KT 2 1/2SM -SN BR BKN017 BKN026 OVC031 M08/M09 A2905 RMK AO2 P0000 FZRANO
PAIW 111956Z AUTO 01021KT 1 3/4SM -SN BR BKN017 OVC023 M08/M09 A2905 RMK AO2 PK WND 02028/1947 SLP838 P0000 T10831094 FZRANO
PAIW 111936Z AUTO 01021KT 1 1/2SM -SN BR OVC019 M08/M09 A2905 RMK AO2 PK WND 01027/1927 P0000 FZRANO
PAIW 111929Z AUTO 01023KT 1SM -SN BR OVC019 M08/M09 A2905 RMK AO2 PK WND 01027/1927 P0000 FZRANO
PAIW 111909Z AUTO 01023KT 1 1/4SM -SN BR BKN018 OVC026 M08/M09 A2905 RMK AO2 P0000 FZRANO
PAIW 111856Z AUTO 02021KT 2 1/2SM -SN BR FEW014 BKN019 OVC026 M08/M09 A2905 RMK AO2 SLP838 P0000 T10831094 FZRANO
PAIW 111837Z AUTO 36021KT 1 1/2SM -SN BR OVC015 M08/M09 A2905 RMK AO2 P0000 FZRANO
PAIW 111812Z AUTO 36021KT 1SM -SN BR BKN015 OVC023 M08/M09 A2904 RMK AO2 P0000 FZRANO
PAIW 111803Z AUTO 36022KT 1 1/4SM -SN BR SCT016 OVC023 M09/M09 A2904 RMK AO2 P0000 FZRANO
PAIW 111756Z AUTO 36020KT 1SM -SN BR FEW015 BKN023 OVC035 M09/M09 A2904 RMK AO2 PK WND 36026/1744 SLP835 P0000 60000 T10891094 11089 21089 53004 FZRANO
PAIW 111748Z AUTO 36023KT 1SM -SN BR FEW015 BKN021 OVC035 M09/M09 A2904 RMK AO2 PK WND 36026/1744 P0000 FZRANO
PAIW 111718Z AUTO 36021KT 1 1/4SM -SN BR SCT013 BKN022 OVC028 M09/M10 A2903 RMK AO2 P0000 FZRANO
PAIW 111706Z AUTO 01022KT 1 1/2SM -SN BR FEW010 BKN014 OVC024 M09/M10 A2904 RMK AO2 P0000 FZRANO
PAIW 111656Z AUTO 01022KT 1SM -SN BR OVC012 M09/M10 A2904 RMK AO2 PK WND 01027/1649 SLP834 P0000 T10891100 FZRANO
PAIW 111647Z AUTO 01023G27KT 1SM -SN BR BKN012 BKN021 OVC033 M09/M10 A2904 RMK AO2 PK WND 01027/1647 P0000 FZRANO
PAIW 111604Z AUTO 01022KT 1 1/2SM -SN BR BKN017 BKN023 OVC029 M09/M10 A2903 RMK AO2 PK WND 01027/1557 P0000 FZRANO
PAIW 111556Z AUTO 01024KT 1SM -SN BR BKN017 OVC023 M09/M10 A2903 RMK AO2 PK WND 01029/1540 SLP832 P0000 T10891100 FZRANO
PAIW 111523Z AUTO 01024KT 1SM -SN BR OVC015 M09/M10 A2903 RMK AO2 PK WND 01029/1515 P0000 FZRANO
PAIW 111456Z AUTO 01023KT 1 1/4SM -SN BR BKN015 BKN032 OVC041 M09/M10 A2903 RMK AO2 PK WND 01030/1440 SLP831 P0000 60000 T10891100 55000 FZRANO
PAIW 111454Z AUTO 01024KT 1 1/4SM -SN BR BKN015 BKN032 OVC041 M09/M10 A2903 RMK AO2 PK WND 01030/1440 P0000 FZRANO
PAIW 111445Z AUTO 01026G30KT 1 1/4SM -SN BR SCT015 BKN032 OVC055 M09/M10 A2902 RMK AO2 PK WND 01030/1440 P0000 FZRANO
PAIW 111415Z AUTO 01024KT 1SM -SN BR BKN015 OVC020 M09/M10 A2902 RMK AO2 PK WND 01030/1403 P0000 FZRANO
PAIW 111356Z AUTO 01026G29KT 3/4SM -SN BR OVC017 M09/M10 A2902 RMK AO2 PK WND 01029/1356 SLP828 P0000 T10891100 FZRANO
PAIW 111330Z AUTO 02024KT 1 1/4SM -SN BR FEW012 BKN019 OVC025 M09/M10 A2903 RMK AO2 PK WND 02029/1320 P0000 FZRANO
PAIW 111317Z AUTO 02023KT 1SM -SN BR SCT012 BKN019 OVC042 M09/M10 A2903 RMK AO2 PK WND 02028/1305 P0000 FZRANO
PAIW 111256Z AUTO 02026KT 1 1/2SM -SN BR BKN020 BKN033 OVC042 M09/M10 A2903 RMK AO2 PK WND 01031/1230 SLP831 P0000 T10891100 FZRANO
PAIW 111251Z AUTO 02027KT 1 1/4SM -SN BR BKN020 OVC031 M09/M10 A2903 RMK AO2 PK WND 01031/1230 P0000 FZRANO
PAIW 111222Z AUTO 01025KT 1SM -SN BR BKN018 OVC025 M08/M09 A2903 RMK AO2 PK WND 01030/1219 P0000 FZRANO
PAIW 111156Z AUTO 02026KT 1 1/2SM -SN BR OVC018 M08/M09 A2903 RMK AO2 PK WND 02030/1147 SLPNO P0000 60000 7//// T10831094 11078 21100 51003 FZRANO
PAIW 111149Z AUTO 02025KT 1 1/2SM -SN BR BKN018 OVC022 M08/M09 A2902 RMK AO2 PK WND 02030/1147 P0000 FZRANO
PAIW 111133Z AUTO 02025KT 2 1/2SM -SN BR BKN018 BKN026 OVC030 M08/M09 A2902 RMK AO2 PK WND 02028/1116 VIS 1 3/4V4 P0000 FZRANO
PAIW 111126Z AUTO 02023KT 2 1/2SM -SN BR SCT021 OVC030 M08/M09 A2902 RMK AO2 PK WND 02028/1116 VIS 1 3/4V4 P0000 FZRANO
PAIW 111118Z AUTO 02023KT 3SM -SN BR SCT021 OVC030 M08/M09 A2903 RMK AO2 PK WND 02028/1116 P0000 FZRANO
PAIW 111102Z AUTO 03021KT 2 1/2SM -SN BR SCT019 BKN029 OVC034 M08/M09 A2903 RMK AO2 P0000 FZRANO
PAIW 111056Z AUTO 03020KT 3SM -SN BR FEW022 BKN030 OVC036 M08/M09 A2903 RMK AO2 PK WND 03026/1042 SLPNO P0000 T10781094 FZRANO
PAIW 111043Z AUTO 03022KT 2SM -SN BR FEW018 SCT023 OVC036 M08/M09 A2903 RMK AO2 PK WND 03026/1042 VIS 1 1/4V5 P0000 FZRANO
PAIW 111033Z AUTO 03022KT 1 1/4SM -SN BR SCT018 BKN025 OVC036 M08/M09 A2903 RMK AO2 PK WND 03026/1033 P0000 FZRANO
PAIW 111019Z AUTO 04021KT 3/4SM -SN BR SCT022 BKN028 OVC036 M08/M09 A2903 RMK AO2 PK WND 04026/1012 P0000 FZRANO
PAIW 111003Z AUTO 04021KT 1SM -SN BR BKN034 OVC075 M08/M09 A2902 RMK AO2 P0000 FZRANO
PAIW 110956Z AUTO 04023KT 3/4SM -SN BR FEW026 BKN034 OVC075 M08/M09 A2902 RMK AO2 PK WND 04027/0955 SLPNO P0000 T10781089 FZRANO
PAIW 110947Z AUTO 04023KT 3/4SM -SN BR FEW012 BKN034 OVC075 M08/M09 A2902 RMK AO2 PK WND 04026/0943 P0000 FZRANO
PAIW 110933Z AUTO 04023KT 1SM -SN BR FEW012 BKN020 OVC032 M08/M09 A2902 RMK AO2 PK WND 04026/0933 P0000 FZRANO
PAIW 110923Z AUTO 04021KT 1 1/2SM -SN BR FEW012 BKN022 OVC028 M09/M09 A2902 RMK AO2 P0000 FZRANO
PAIW 110903Z AUTO 06018KT 6SM -SN BR SCT017 BKN023 OVC031 M09/M11 A2902 RMK AO2 P0000 FZRANO
PAIW 110856Z AUTO 06016KT 2 1/2SM -SN BR FEW010 BKN017 OVC023 M09/M11 A2902 RMK AO2 SLPNO P0000 60000 T10941106 410891128 55002 FZRANO
PAIW 110847Z AUTO 06016KT 2 1/2SM -SN BR FEW008 BKN013 OVC023 M09/M11 A2902 RMK AO2 VIS 1 1/4V4 P0000 FZRANO
PAIW 110839Z AUTO 06017KT 2 1/2SM -SN BR BKN008 BKN016 OVC023 M09/M11 A2901 RMK AO2 VIS 1 1/2V4 CIG 006V011 P0000 FZRANO
PAIW 110822Z AUTO 06018KT 1 3/4SM -SN BR BKN008 BKN013 OVC020 M09/M10 A2901 RMK AO2 VIS 1 1/4V4 CIG 006V010 P0000 FZRANO
PAIW 110813Z AUTO 06019KT 2 1/2SM -SN BR FEW010 BKN014 OVC020 M09/M10 A2901 RMK AO2 P0000 FZRANO
PAIW 110756Z AUTO 06015KT 5SM -SN BR BKN016 OVC022 M09/M11 A2902 RMK AO2 SLPNO P0000 T10941106 FZRANO
PAIW 110656Z AUTO 06015KT 5SM -SN BR SCT017 BKN023 OVC028 M09/M11 A2901 RMK AO2 SLPNO P0000 T10941111 FZRANO
PAIW 110622Z AUTO 06017KT 5SM -SN BR OVC016 M10/M11 A2902 RMK AO2 P0000 FZRANO
PAIW 110556Z AUTO 06017KT 4SM -SN BR OVC014 M10/M11 A2902 RMK AO2 SLPNO P0000 60000 T11001111 11100 21122 58003 FZRANO
PAIW 110545Z AUTO 06014KT 3SM -SN BR BKN012 OVC018 M10/M11 A2902 RMK AO2 P0000 FZRANO
PAIW 110538Z AUTO 06014KT 3SM -SN BR SCT009 OVC016 M10/M12 A2902 RMK AO2 P0000 FZRANO
PAIW 110526Z AUTO 06012KT 2 1/2SM -SN BR BKN011 BKN018 OVC041 M11/M12 A2902 RMK AO2 VIS 1 3/4V3 P0000 FZRANO
PAIW 110513Z AUTO 05011KT 6SM -SN BR SCT013 BKN025 OVC041 M11/M12 A2902 RMK AO2 P0000 FZRANO
PAIW 110456Z AUTO 06011KT 4SM -SN BR BKN013 OVC022 M11/M12 A2902 RMK AO2 SLPNO P0000 T11061117 FZRANO
PAIW 110433Z AUTO 06011KT 3SM -SN BR OVC011 M11/M12 A2903 RMK AO2 P0000 FZRANO
PAIW 110424Z AUTO 06012KT 2 1/2SM -SN BR OVC008 M11/M12 A2903 RMK AO2 VIS 1 1/2V3 CIG 006V012 P0000 FZRANO
PAIW 110413Z AUTO 06009KT 1 1/4SM -SN BR OVC008 M11/M12 A2903 RMK AO2 CIG 006V011 P0000 FZRANO
PAIW 110407Z AUTO 05010KT 3/4SM -SN BR OVC008 M11/M12 A2903 RMK AO2 CIG 005V011 P0000 FZRANO
PAIW 110356Z AUTO 05010KT 1 1/4SM -SN BR OVC008 M11/M12 A2903 RMK AO2 CIG 004V011 SLPNO P0000 T11111122 FZRANO
PAIW 110348Z AUTO 05011KT 1SM -SN BR OVC006 M11/M12 A2903 RMK AO2 CIG 004V011 P0000 FZRANO
PAIW 110342Z AUTO 05011KT 1/2SM SN FZFG OVC006 M11/M12 A2903 RMK AO2 CIG 003V009 P0000 FZRANO
PAIW 110315Z AUTO 06011KT 3/4SM -SN BR BKN004 OVC012 M11/M12 A2903 RMK AO2 CIG 003V007 P0000 FZRANO